sensor_id;sensor_type;location;lat;lon;timestamp;P1;durP1;ratioP1;P2;durP2;ratioP2
73841;SDS011;62184;52.006;5.924;2022-12-29T00:00:18;6.60;;;4.20;;
73841;SDS011;62184;52.006;5.924;2022-12-29T00:02:44;7.15;;;4.07;;
73841;SDS011;62184;52.006;5.924;2022-12-29T00:05:10;6.68;;;3.95;;
73841;SDS011;62184;52.006;5.924;2022-12-29T00:07:37;6.65;;;4.10;;
73841;SDS011;62184;52.006;5.924;2022-12-29T00:10:04;6.20;;;3.90;;
73841;SDS011;62184;52.006;5.924;2022-12-29T00:12:35;7.10;;;4.07;;
73841;SDS011;62184;52.006;5.924;2022-12-29T00:15:02;6.63;;;3.92;;
73841;SDS011;62184;52.006;5.924;2022-12-29T00:17:29;6.72;;;4.00;;
73841;SDS011;62184;52.006;5.924;2022-12-29T00:19:55;6.40;;;3.97;;
73841;SDS011;62184;52.006;5.924;2022-12-29T00:22:22;6.07;;;3.60;;
73841;SDS011;62184;52.006;5.924;2022-12-29T00:24:49;6.60;;;3.85;;
73841;SDS011;62184;52.006;5.924;2022-12-29T00:27:15;7.18;;;4.07;;
73841;SDS011;62184;52.006;5.924;2022-12-29T00:29:44;6.55;;;3.60;;
73841;SDS011;62184;52.006;5.924;2022-12-29T00:32:11;6.20;;;3.88;;
73841;SDS011;62184;52.006;5.924;2022-12-29T00:34:37;7.50;;;3.88;;
73841;SDS011;62184;52.006;5.924;2022-12-29T00:37:04;7.00;;;3.80;;
73841;SDS011;62184;52.006;5.924;2022-12-29T00:39:31;6.82;;;3.88;;
73841;SDS011;62184;52.006;5.924;2022-12-29T00:42:02;6.53;;;3.75;;
73841;SDS011;62184;52.006;5.924;2022-12-29T00:44:29;7.38;;;4.13;;
73841;SDS011;62184;52.006;5.924;2022-12-29T00:46:58;6.45;;;3.92;;
73841;SDS011;62184;52.006;5.924;2022-12-29T00:49:25;6.80;;;3.77;;
73841;SDS011;62184;52.006;5.924;2022-12-29T00:51:51;6.60;;;3.70;;
73841;SDS011;62184;52.006;5.924;2022-12-29T00:54:19;6.90;;;3.60;;
73841;SDS011;62184;52.006;5.924;2022-12-29T00:56:46;6.32;;;3.30;;
73841;SDS011;62184;52.006;5.924;2022-12-29T00:59:13;6.18;;;3.47;;
73841;SDS011;62184;52.006;5.924;2022-12-29T01:01:40;6.37;;;3.30;;
73841;SDS011;62184;52.006;5.924;2022-12-29T01:04:10;6.03;;;3.40;;
73841;SDS011;62184;52.006;5.924;2022-12-29T01:06:37;5.75;;;3.30;;
73841;SDS011;62184;52.006;5.924;2022-12-29T01:09:06;6.40;;;3.30;;
73841;SDS011;62184;52.006;5.924;2022-12-29T01:11:34;5.78;;;3.25;;
73841;SDS011;62184;52.006;5.924;2022-12-29T01:14:00;5.35;;;3.03;;
73841;SDS011;62184;52.006;5.924;2022-12-29T01:16:26;6.38;;;2.95;;
73841;SDS011;62184;52.006;5.924;2022-12-29T01:18:53;6.23;;;2.70;;
73841;SDS011;62184;52.006;5.924;2022-12-29T01:21:22;5.35;;;2.60;;
73841;SDS011;62184;52.006;5.924;2022-12-29T01:23:49;5.25;;;2.40;;
73841;SDS011;62184;52.006;5.924;2022-12-29T01:26:16;4.88;;;2.22;;
73841;SDS011;62184;52.006;5.924;2022-12-29T01:28:43;4.80;;;1.90;;
73841;SDS011;62184;52.006;5.924;2022-12-29T01:31:11;4.65;;;2.00;;
73841;SDS011;62184;52.006;5.924;2022-12-29T01:33:40;5.15;;;2.00;;
73841;SDS011;62184;52.006;5.924;2022-12-29T01:36:08;4.80;;;1.80;;
73841;SDS011;62184;52.006;5.924;2022-12-29T01:38:39;4.90;;;1.70;;
73841;SDS011;62184;52.006;5.924;2022-12-29T01:41:07;4.00;;;1.90;;
73841;SDS011;62184;52.006;5.924;2022-12-29T01:43:41;4.55;;;1.80;;
73841;SDS011;62184;52.006;5.924;2022-12-29T01:46:13;4.05;;;1.75;;
73841;SDS011;62184;52.006;5.924;2022-12-29T01:48:48;5.20;;;2.00;;
73841;SDS011;62184;52.006;5.924;2022-12-29T01:51:19;5.00;;;1.90;;
73841;SDS011;62184;52.006;5.924;2022-12-29T01:53:53;4.50;;;2.05;;
73841;SDS011;62184;52.006;5.924;2022-12-29T01:56:26;5.10;;;2.22;;
73841;SDS011;62184;52.006;5.924;2022-12-29T01:58:54;5.50;;;2.33;;
73841;SDS011;62184;52.006;5.924;2022-12-29T02:01:27;5.30;;;2.22;;
73841;SDS011;62184;52.006;5.924;2022-12-29T02:03:54;4.63;;;2.33;;
73841;SDS011;62184;52.006;5.924;2022-12-29T02:06:21;4.75;;;2.30;;
73841;SDS011;62184;52.006;5.924;2022-12-29T02:08:56;4.60;;;2.40;;
73841;SDS011;62184;52.006;5.924;2022-12-29T02:11:23;4.90;;;2.60;;
73841;SDS011;62184;52.006;5.924;2022-12-29T02:13:54;4.95;;;2.70;;
73841;SDS011;62184;52.006;5.924;2022-12-29T02:16:24;5.00;;;2.80;;
73841;SDS011;62184;52.006;5.924;2022-12-29T02:22:25;5.32;;;2.70;;
73841;SDS011;62184;52.006;5.924;2022-12-29T02:32:02;7.28;;;3.30;;
73841;SDS011;62184;52.006;5.924;2022-12-29T02:34:36;5.90;;;2.97;;
73841;SDS011;62184;52.006;5.924;2022-12-29T02:37:24;6.43;;;3.13;;
73841;SDS011;62184;52.006;5.924;2022-12-29T02:40:02;5.50;;;2.72;;
73841;SDS011;62184;52.006;5.924;2022-12-29T02:42:43;7.68;;;3.05;;
73841;SDS011;62184;52.006;5.924;2022-12-29T02:45:19;6.72;;;3.00;;
73841;SDS011;62184;52.006;5.924;2022-12-29T02:47:57;6.68;;;2.80;;
73841;SDS011;62184;52.006;5.924;2022-12-29T02:50:36;6.37;;;2.93;;
73841;SDS011;62184;52.006;5.924;2022-12-29T02:53:11;6.70;;;3.00;;
73841;SDS011;62184;52.006;5.924;2022-12-29T02:55:47;7.37;;;3.00;;
73841;SDS011;62184;52.006;5.924;2022-12-29T02:58:16;7.10;;;2.92;;
73841;SDS011;62184;52.006;5.924;2022-12-29T03:00:53;5.78;;;2.40;;
73841;SDS011;62184;52.006;5.924;2022-12-29T03:03:50;4.70;;;2.05;;
73841;SDS011;62184;52.006;5.924;2022-12-29T03:06:39;5.18;;;1.80;;
73841;SDS011;62184;52.006;5.924;2022-12-29T03:09:21;5.05;;;1.60;;
73841;SDS011;62184;52.006;5.924;2022-12-29T03:12:03;4.30;;;1.50;;
73841;SDS011;62184;52.006;5.924;2022-12-29T03:14:52;4.43;;;1.52;;
73841;SDS011;62184;52.006;5.924;2022-12-29T03:17:27;5.78;;;1.50;;
73841;SDS011;62184;52.006;5.924;2022-12-29T03:20:09;7.45;;;1.70;;
73841;SDS011;62184;52.006;5.924;2022-12-29T03:22:42;6.50;;;1.90;;
73841;SDS011;62184;52.006;5.924;2022-12-29T03:25:15;6.47;;;1.80;;
73841;SDS011;62184;52.006;5.924;2022-12-29T03:27:49;5.63;;;1.55;;
73841;SDS011;62184;52.006;5.924;2022-12-29T03:30:21;4.38;;;1.63;;
73841;SDS011;62184;52.006;5.924;2022-12-29T03:32:50;5.25;;;1.60;;
73841;SDS011;62184;52.006;5.924;2022-12-29T03:35:25;4.85;;;1.63;;
73841;SDS011;62184;52.006;5.924;2022-12-29T03:38:08;5.82;;;1.80;;
73841;SDS011;62184;52.006;5.924;2022-12-29T03:40:42;6.10;;;1.83;;
73841;SDS011;62184;52.006;5.924;2022-12-29T03:43:14;5.50;;;1.90;;
73841;SDS011;62184;52.006;5.924;2022-12-29T03:45:43;5.05;;;1.60;;
73841;SDS011;62184;52.006;5.924;2022-12-29T03:48:09;4.70;;;1.73;;
73841;SDS011;62184;52.006;5.924;2022-12-29T03:50:38;6.57;;;1.70;;
73841;SDS011;62184;52.006;5.924;2022-12-29T03:53:04;6.40;;;1.52;;
73841;SDS011;62184;52.006;5.924;2022-12-29T03:55:31;4.95;;;1.40;;
73841;SDS011;62184;52.006;5.924;2022-12-29T03:57:57;5.72;;;1.50;;
73841;SDS011;62184;52.006;5.924;2022-12-29T04:00:24;5.53;;;1.65;;
73841;SDS011;62184;52.006;5.924;2022-12-29T04:02:50;5.78;;;1.40;;
73841;SDS011;62184;52.006;5.924;2022-12-29T04:05:17;4.82;;;1.50;;
73841;SDS011;62184;52.006;5.924;2022-12-29T04:07:46;6.25;;;1.50;;
73841;SDS011;62184;52.006;5.924;2022-12-29T04:10:12;4.68;;;1.60;;
73841;SDS011;62184;52.006;5.924;2022-12-29T04:12:39;4.97;;;1.40;;
73841;SDS011;62184;52.006;5.924;2022-12-29T04:15:06;4.50;;;1.50;;
73841;SDS011;62184;52.006;5.924;2022-12-29T04:17:34;5.37;;;1.40;;
73841;SDS011;62184;52.006;5.924;2022-12-29T04:20:00;6.15;;;1.55;;
73841;SDS011;62184;52.006;5.924;2022-12-29T04:22:27;5.22;;;1.60;;
73841;SDS011;62184;52.006;5.924;2022-12-29T04:24:56;5.07;;;1.50;;
73841;SDS011;62184;52.006;5.924;2022-12-29T04:27:22;5.33;;;1.50;;
73841;SDS011;62184;52.006;5.924;2022-12-29T04:29:49;5.72;;;1.50;;
73841;SDS011;62184;52.006;5.924;2022-12-29T04:32:15;6.53;;;1.60;;
73841;SDS011;62184;52.006;5.924;2022-12-29T04:34:41;5.57;;;1.48;;
73841;SDS011;62184;52.006;5.924;2022-12-29T04:37:08;6.47;;;1.60;;
73841;SDS011;62184;52.006;5.924;2022-12-29T04:39:34;6.72;;;1.70;;
73841;SDS011;62184;52.006;5.924;2022-12-29T04:42:03;5.45;;;1.42;;
73841;SDS011;62184;52.006;5.924;2022-12-29T04:44:30;6.30;;;1.55;;
73841;SDS011;62184;52.006;5.924;2022-12-29T04:46:56;6.10;;;1.40;;
73841;SDS011;62184;52.006;5.924;2022-12-29T04:49:23;6.35;;;1.60;;
73841;SDS011;62184;52.006;5.924;2022-12-29T04:51:49;5.05;;;1.40;;
73841;SDS011;62184;52.006;5.924;2022-12-29T04:54:16;6.35;;;1.52;;
73841;SDS011;62184;52.006;5.924;2022-12-29T04:56:42;5.65;;;1.50;;
73841;SDS011;62184;52.006;5.924;2022-12-29T04:59:11;7.25;;;1.80;;
73841;SDS011;62184;52.006;5.924;2022-12-29T05:01:37;8.52;;;1.80;;
73841;SDS011;62184;52.006;5.924;2022-12-29T05:04:04;7.43;;;1.75;;
73841;SDS011;62184;52.006;5.924;2022-12-29T05:06:30;6.55;;;1.60;;
73841;SDS011;62184;52.006;5.924;2022-12-29T05:08:57;6.70;;;1.60;;
73841;SDS011;62184;52.006;5.924;2022-12-29T05:11:23;6.82;;;1.70;;
73841;SDS011;62184;52.006;5.924;2022-12-29T05:13:49;7.22;;;1.63;;
73841;SDS011;62184;52.006;5.924;2022-12-29T05:16:18;7.05;;;1.48;;
73841;SDS011;62184;52.006;5.924;2022-12-29T05:18:45;7.45;;;1.40;;
73841;SDS011;62184;52.006;5.924;2022-12-29T05:21:11;7.82;;;1.70;;
73841;SDS011;62184;52.006;5.924;2022-12-29T05:23:38;6.65;;;1.40;;
73841;SDS011;62184;52.006;5.924;2022-12-29T05:26:04;9.15;;;1.75;;
73841;SDS011;62184;52.006;5.924;2022-12-29T05:28:30;5.90;;;1.55;;
73841;SDS011;62184;52.006;5.924;2022-12-29T05:30:57;7.07;;;1.52;;
73841;SDS011;62184;52.006;5.924;2022-12-29T05:33:26;6.50;;;1.75;;
73841;SDS011;62184;52.006;5.924;2022-12-29T05:35:52;5.77;;;1.83;;
73841;SDS011;62184;52.006;5.924;2022-12-29T05:38:19;7.15;;;1.70;;
73841;SDS011;62184;52.006;5.924;2022-12-29T05:40:45;7.13;;;1.90;;
73841;SDS011;62184;52.006;5.924;2022-12-29T05:43:12;7.50;;;2.10;;
73841;SDS011;62184;52.006;5.924;2022-12-29T05:45:38;6.95;;;2.03;;
73841;SDS011;62184;52.006;5.924;2022-12-29T05:48:05;4.93;;;2.08;;
73841;SDS011;62184;52.006;5.924;2022-12-29T05:50:34;6.50;;;2.30;;
73841;SDS011;62184;52.006;5.924;2022-12-29T05:53:00;5.78;;;1.98;;
73841;SDS011;62184;52.006;5.924;2022-12-29T05:55:26;5.70;;;2.10;;
73841;SDS011;62184;52.006;5.924;2022-12-29T05:57:53;6.15;;;1.98;;
73841;SDS011;62184;52.006;5.924;2022-12-29T06:00:19;6.35;;;1.80;;
73841;SDS011;62184;52.006;5.924;2022-12-29T06:02:46;6.07;;;1.93;;
73841;SDS011;62184;52.006;5.924;2022-12-29T06:05:12;5.97;;;1.77;;
73841;SDS011;62184;52.006;5.924;2022-12-29T06:07:41;7.43;;;2.10;;
73841;SDS011;62184;52.006;5.924;2022-12-29T06:10:08;7.10;;;1.80;;
73841;SDS011;62184;52.006;5.924;2022-12-29T06:12:34;8.50;;;2.00;;
73841;SDS011;62184;52.006;5.924;2022-12-29T06:15:01;7.40;;;2.03;;
73841;SDS011;62184;52.006;5.924;2022-12-29T06:17:27;8.48;;;2.00;;
73841;SDS011;62184;52.006;5.924;2022-12-29T06:19:54;8.80;;;1.70;;
73841;SDS011;62184;52.006;5.924;2022-12-29T06:22:20;6.30;;;1.70;;
73841;SDS011;62184;52.006;5.924;2022-12-29T06:24:49;7.15;;;1.80;;
73841;SDS011;62184;52.006;5.924;2022-12-29T06:27:16;7.20;;;1.70;;
73841;SDS011;62184;52.006;5.924;2022-12-29T06:29:42;8.35;;;2.00;;
73841;SDS011;62184;52.006;5.924;2022-12-29T06:32:09;8.07;;;1.50;;
73841;SDS011;62184;52.006;5.924;2022-12-29T06:34:35;8.90;;;1.55;;
73841;SDS011;62184;52.006;5.924;2022-12-29T06:37:02;7.50;;;1.70;;
73841;SDS011;62184;52.006;5.924;2022-12-29T06:39:28;8.38;;;1.60;;
73841;SDS011;62184;52.006;5.924;2022-12-29T06:41:57;7.75;;;1.67;;
73841;SDS011;62184;52.006;5.924;2022-12-29T06:44:24;8.73;;;1.70;;
73841;SDS011;62184;52.006;5.924;2022-12-29T06:46:50;8.35;;;1.80;;
73841;SDS011;62184;52.006;5.924;2022-12-29T06:49:17;7.50;;;1.35;;
73841;SDS011;62184;52.006;5.924;2022-12-29T06:51:43;8.13;;;1.60;;
73841;SDS011;62184;52.006;5.924;2022-12-29T06:54:10;8.35;;;1.60;;
73841;SDS011;62184;52.006;5.924;2022-12-29T06:56:36;8.88;;;1.70;;
73841;SDS011;62184;52.006;5.924;2022-12-29T06:59:05;8.30;;;1.58;;
73841;SDS011;62184;52.006;5.924;2022-12-29T07:01:32;8.25;;;1.70;;
73841;SDS011;62184;52.006;5.924;2022-12-29T07:03:58;7.20;;;1.48;;
73841;SDS011;62184;52.006;5.924;2022-12-29T07:06:25;6.97;;;1.80;;
73841;SDS011;62184;52.006;5.924;2022-12-29T07:08:51;7.73;;;1.73;;
73841;SDS011;62184;52.006;5.924;2022-12-29T07:11:18;8.20;;;1.65;;
73841;SDS011;62184;52.006;5.924;2022-12-29T07:13:44;9.13;;;1.80;;
73841;SDS011;62184;52.006;5.924;2022-12-29T07:16:13;6.97;;;1.45;;
73841;SDS011;62184;52.006;5.924;2022-12-29T07:18:40;7.63;;;1.40;;
73841;SDS011;62184;52.006;5.924;2022-12-29T07:21:06;8.63;;;1.67;;
73841;SDS011;62184;52.006;5.924;2022-12-29T07:23:32;8.13;;;1.83;;
73841;SDS011;62184;52.006;5.924;2022-12-29T07:25:59;7.60;;;1.45;;
73841;SDS011;62184;52.006;5.924;2022-12-29T07:28:26;5.95;;;1.50;;
73841;SDS011;62184;52.006;5.924;2022-12-29T07:30:53;8.82;;;1.65;;
73841;SDS011;62184;52.006;5.924;2022-12-29T07:33:22;7.82;;;1.50;;
73841;SDS011;62184;52.006;5.924;2022-12-29T07:35:48;6.68;;;1.63;;
73841;SDS011;62184;52.006;5.924;2022-12-29T07:38:15;8.55;;;1.73;;
73841;SDS011;62184;52.006;5.924;2022-12-29T07:40:41;7.18;;;1.42;;
73841;SDS011;62184;52.006;5.924;2022-12-29T07:43:08;6.83;;;1.70;;
73841;SDS011;62184;52.006;5.924;2022-12-29T07:45:34;8.15;;;1.75;;
73841;SDS011;62184;52.006;5.924;2022-12-29T07:48:01;6.57;;;1.60;;
73841;SDS011;62184;52.006;5.924;2022-12-29T07:50:30;7.88;;;1.75;;
73841;SDS011;62184;52.006;5.924;2022-12-29T07:52:56;6.73;;;1.70;;
73841;SDS011;62184;52.006;5.924;2022-12-29T07:55:23;7.30;;;1.67;;
73841;SDS011;62184;52.006;5.924;2022-12-29T07:57:49;9.07;;;1.90;;
73841;SDS011;62184;52.006;5.924;2022-12-29T08:00:18;8.88;;;2.10;;
73841;SDS011;62184;52.006;5.924;2022-12-29T08:02:44;7.53;;;1.77;;
73841;SDS011;62184;52.006;5.924;2022-12-29T08:05:11;7.40;;;1.88;;
73841;SDS011;62184;52.006;5.924;2022-12-29T08:07:41;9.23;;;2.00;;
73841;SDS011;62184;52.006;5.924;2022-12-29T08:10:08;10.50;;;2.00;;
73841;SDS011;62184;52.006;5.924;2022-12-29T08:12:37;8.75;;;1.75;;
73841;SDS011;62184;52.006;5.924;2022-12-29T08:15:05;10.13;;;1.95;;
73841;SDS011;62184;52.006;5.924;2022-12-29T08:17:35;7.50;;;1.70;;
73841;SDS011;62184;52.006;5.924;2022-12-29T08:20:01;7.65;;;2.00;;
73841;SDS011;62184;52.006;5.924;2022-12-29T08:22:29;8.70;;;2.03;;
73841;SDS011;62184;52.006;5.924;2022-12-29T08:24:59;9.13;;;1.90;;
73841;SDS011;62184;52.006;5.924;2022-12-29T08:27:25;9.15;;;2.00;;
73841;SDS011;62184;52.006;5.924;2022-12-29T08:29:52;8.50;;;2.03;;
73841;SDS011;62184;52.006;5.924;2022-12-29T08:32:18;8.27;;;1.73;;
73841;SDS011;62184;52.006;5.924;2022-12-29T08:34:45;8.55;;;1.88;;
73841;SDS011;62184;52.006;5.924;2022-12-29T08:37:11;9.75;;;1.70;;
73841;SDS011;62184;52.006;5.924;2022-12-29T08:39:38;7.40;;;1.80;;
73841;SDS011;62184;52.006;5.924;2022-12-29T08:42:07;10.77;;;1.95;;
73841;SDS011;62184;52.006;5.924;2022-12-29T08:44:33;8.05;;;1.70;;
73841;SDS011;62184;52.006;5.924;2022-12-29T08:47:00;8.95;;;1.67;;
73841;SDS011;62184;52.006;5.924;2022-12-29T08:49:26;8.73;;;1.60;;
73841;SDS011;62184;52.006;5.924;2022-12-29T08:51:52;9.75;;;1.92;;
73841;SDS011;62184;52.006;5.924;2022-12-29T08:54:19;8.52;;;1.80;;
73841;SDS011;62184;52.006;5.924;2022-12-29T08:56:45;7.43;;;1.70;;
73841;SDS011;62184;52.006;5.924;2022-12-29T08:59:14;9.30;;;2.10;;
73841;SDS011;62184;52.006;5.924;2022-12-29T09:01:41;7.47;;;1.80;;
73841;SDS011;62184;52.006;5.924;2022-12-29T09:04:07;8.95;;;1.80;;
73841;SDS011;62184;52.006;5.924;2022-12-29T09:06:34;9.77;;;1.90;;
73841;SDS011;62184;52.006;5.924;2022-12-29T09:09:01;10.18;;;2.00;;
73841;SDS011;62184;52.006;5.924;2022-12-29T09:11:27;10.05;;;2.03;;
73841;SDS011;62184;52.006;5.924;2022-12-29T09:13:54;9.10;;;2.10;;
73841;SDS011;62184;52.006;5.924;2022-12-29T09:16:23;10.00;;;2.03;;
73841;SDS011;62184;52.006;5.924;2022-12-29T09:18:50;7.85;;;1.90;;
73841;SDS011;62184;52.006;5.924;2022-12-29T09:21:16;9.60;;;2.13;;
73841;SDS011;62184;52.006;5.924;2022-12-29T09:23:43;9.38;;;1.90;;
73841;SDS011;62184;52.006;5.924;2022-12-29T09:26:09;9.98;;;2.15;;
73841;SDS011;62184;52.006;5.924;2022-12-29T09:28:36;9.63;;;2.28;;
73841;SDS011;62184;52.006;5.924;2022-12-29T09:31:02;10.63;;;1.90;;
73841;SDS011;62184;52.006;5.924;2022-12-29T09:33:32;10.30;;;2.08;;
73841;SDS011;62184;52.006;5.924;2022-12-29T09:35:58;10.38;;;2.00;;
73841;SDS011;62184;52.006;5.924;2022-12-29T09:38:25;8.80;;;1.90;;
73841;SDS011;62184;52.006;5.924;2022-12-29T09:40:54;9.57;;;1.90;;
73841;SDS011;62184;52.006;5.924;2022-12-29T09:43:29;9.77;;;1.92;;
73841;SDS011;62184;52.006;5.924;2022-12-29T09:46:19;12.65;;;2.03;;
73841;SDS011;62184;52.006;5.924;2022-12-29T09:49:00;11.23;;;2.00;;
73841;SDS011;62184;52.006;5.924;2022-12-29T09:51:41;11.25;;;1.90;;
73841;SDS011;62184;52.006;5.924;2022-12-29T09:54:19;11.23;;;2.08;;
73841;SDS011;62184;52.006;5.924;2022-12-29T09:57:08;9.77;;;2.45;;
73841;SDS011;62184;52.006;5.924;2022-12-29T09:59:44;10.05;;;2.00;;
73841;SDS011;62184;52.006;5.924;2022-12-29T10:02:21;7.95;;;1.90;;
73841;SDS011;62184;52.006;5.924;2022-12-29T10:05:00;10.55;;;2.10;;
73841;SDS011;62184;52.006;5.924;2022-12-29T10:07:33;12.18;;;2.10;;
73841;SDS011;62184;52.006;5.924;2022-12-29T10:10:15;12.30;;;2.40;;
73841;SDS011;62184;52.006;5.924;2022-12-29T10:12:58;10.48;;;2.00;;
73841;SDS011;62184;52.006;5.924;2022-12-29T10:15:46;11.20;;;2.15;;
73841;SDS011;62184;52.006;5.924;2022-12-29T10:18:33;10.00;;;2.08;;
73841;SDS011;62184;52.006;5.924;2022-12-29T10:21:28;8.40;;;1.85;;
73841;SDS011;62184;52.006;5.924;2022-12-29T10:24:13;9.20;;;2.30;;
73841;SDS011;62184;52.006;5.924;2022-12-29T10:26:42;8.70;;;1.88;;
73841;SDS011;62184;52.006;5.924;2022-12-29T10:29:14;10.77;;;2.35;;
73841;SDS011;62184;52.006;5.924;2022-12-29T10:31:46;7.57;;;2.20;;
73841;SDS011;62184;52.006;5.924;2022-12-29T10:34:22;10.48;;;2.28;;
73841;SDS011;62184;52.006;5.924;2022-12-29T10:36:58;9.23;;;2.50;;
73841;SDS011;62184;52.006;5.924;2022-12-29T10:39:36;9.32;;;1.95;;
73841;SDS011;62184;52.006;5.924;2022-12-29T10:42:11;8.32;;;2.10;;
73841;SDS011;62184;52.006;5.924;2022-12-29T10:44:52;11.83;;;2.73;;
73841;SDS011;62184;52.006;5.924;2022-12-29T10:47:21;8.75;;;2.15;;
73841;SDS011;62184;52.006;5.924;2022-12-29T10:49:53;9.93;;;2.22;;
73841;SDS011;62184;52.006;5.924;2022-12-29T10:52:22;11.20;;;2.50;;
73841;SDS011;62184;52.006;5.924;2022-12-29T10:54:53;10.70;;;2.50;;
73841;SDS011;62184;52.006;5.924;2022-12-29T10:57:26;9.63;;;2.50;;
73841;SDS011;62184;52.006;5.924;2022-12-29T10:59:58;10.13;;;2.50;;
73841;SDS011;62184;52.006;5.924;2022-12-29T11:02:46;8.48;;;2.78;;
73841;SDS011;62184;52.006;5.924;2022-12-29T11:05:35;10.25;;;2.30;;
73841;SDS011;62184;52.006;5.924;2022-12-29T11:08:15;8.52;;;2.42;;
73841;SDS011;62184;52.006;5.924;2022-12-29T11:10:45;11.23;;;2.60;;
73841;SDS011;62184;52.006;5.924;2022-12-29T11:13:25;10.18;;;3.00;;
73841;SDS011;62184;52.006;5.924;2022-12-29T11:15:53;11.47;;;2.90;;
73841;SDS011;62184;52.006;5.924;2022-12-29T11:18:21;12.25;;;3.30;;
73841;SDS011;62184;52.006;5.924;2022-12-29T11:20:50;12.18;;;3.10;;
73841;SDS011;62184;52.006;5.924;2022-12-29T11:23:24;11.70;;;3.20;;
73841;SDS011;62184;52.006;5.924;2022-12-29T11:29:04;12.05;;;3.38;;
73841;SDS011;62184;52.006;5.924;2022-12-29T11:31:43;11.37;;;3.60;;
73841;SDS011;62184;52.006;5.924;2022-12-29T11:34:16;10.73;;;3.20;;
73841;SDS011;62184;52.006;5.924;2022-12-29T11:36:45;11.48;;;3.92;;
73841;SDS011;62184;52.006;5.924;2022-12-29T11:42:15;13.73;;;3.88;;
73841;SDS011;62184;52.006;5.924;2022-12-29T11:44:48;12.67;;;4.50;;
73841;SDS011;62184;52.006;5.924;2022-12-29T11:47:21;13.32;;;4.22;;
73841;SDS011;62184;52.006;5.924;2022-12-29T11:49:55;14.52;;;4.72;;
73841;SDS011;62184;52.006;5.924;2022-12-29T11:52:26;11.90;;;4.17;;
73841;SDS011;62184;52.006;5.924;2022-12-29T11:55:00;12.30;;;4.28;;
73841;SDS011;62184;52.006;5.924;2022-12-29T11:57:30;14.82;;;4.35;;
73841;SDS011;62184;52.006;5.924;2022-12-29T12:00:02;13.30;;;4.25;;
73841;SDS011;62184;52.006;5.924;2022-12-29T12:02:41;16.25;;;4.43;;
73841;SDS011;62184;52.006;5.924;2022-12-29T12:05:24;16.15;;;4.43;;
73841;SDS011;62184;52.006;5.924;2022-12-29T12:08:11;15.03;;;4.27;;
73841;SDS011;62184;52.006;5.924;2022-12-29T12:10:47;11.88;;;4.05;;
73841;SDS011;62184;52.006;5.924;2022-12-29T12:13:24;13.30;;;4.47;;
73841;SDS011;62184;52.006;5.924;2022-12-29T12:16:00;13.90;;;4.40;;
73841;SDS011;62184;52.006;5.924;2022-12-29T12:18:37;14.77;;;4.50;;
73841;SDS011;62184;52.006;5.924;2022-12-29T12:21:14;12.60;;;4.40;;
73841;SDS011;62184;52.006;5.924;2022-12-29T12:27:04;13.35;;;4.05;;
73841;SDS011;62184;52.006;5.924;2022-12-29T12:29:45;15.32;;;4.22;;
73841;SDS011;62184;52.006;5.924;2022-12-29T12:32:23;14.90;;;4.13;;
73841;SDS011;62184;52.006;5.924;2022-12-29T12:35:01;16.55;;;4.20;;
73841;SDS011;62184;52.006;5.924;2022-12-29T12:37:43;13.45;;;4.30;;
73841;SDS011;62184;52.006;5.924;2022-12-29T12:40:34;12.50;;;4.53;;
73841;SDS011;62184;52.006;5.924;2022-12-29T12:49:34;12.30;;;4.50;;
73841;SDS011;62184;52.006;5.924;2022-12-29T12:52:29;14.10;;;4.50;;
73841;SDS011;62184;52.006;5.924;2022-12-29T12:55:18;9.93;;;3.97;;
73841;SDS011;62184;52.006;5.924;2022-12-29T12:58:08;14.20;;;4.05;;
73841;SDS011;62184;52.006;5.924;2022-12-29T13:00:50;11.95;;;4.05;;
73841;SDS011;62184;52.006;5.924;2022-12-29T13:03:36;12.75;;;4.03;;
73841;SDS011;62184;52.006;5.924;2022-12-29T13:06:21;14.70;;;4.30;;
73841;SDS011;62184;52.006;5.924;2022-12-29T13:09:16;11.68;;;3.90;;
73841;SDS011;62184;52.006;5.924;2022-12-29T13:12:05;13.10;;;4.18;;
73841;SDS011;62184;52.006;5.924;2022-12-29T13:14:56;14.90;;;4.50;;
73841;SDS011;62184;52.006;5.924;2022-12-29T13:17:43;13.73;;;4.10;;
73841;SDS011;62184;52.006;5.924;2022-12-29T13:20:22;12.30;;;4.00;;
73841;SDS011;62184;52.006;5.924;2022-12-29T13:23:00;12.73;;;4.13;;
73841;SDS011;62184;52.006;5.924;2022-12-29T13:25:40;14.13;;;4.13;;
73841;SDS011;62184;52.006;5.924;2022-12-29T13:28:17;13.15;;;4.25;;
73841;SDS011;62184;52.006;5.924;2022-12-29T13:30:56;16.38;;;4.40;;
73841;SDS011;62184;52.006;5.924;2022-12-29T13:33:33;12.63;;;4.22;;
73841;SDS011;62184;52.006;5.924;2022-12-29T13:36:18;12.70;;;4.40;;
73841;SDS011;62184;52.006;5.924;2022-12-29T13:39:01;10.55;;;3.97;;
73841;SDS011;62184;52.006;5.924;2022-12-29T13:41:35;12.33;;;3.73;;
73841;SDS011;62184;52.006;5.924;2022-12-29T13:44:09;12.50;;;4.22;;
73841;SDS011;62184;52.006;5.924;2022-12-29T13:46:44;12.15;;;3.78;;
73841;SDS011;62184;52.006;5.924;2022-12-29T13:49:15;12.15;;;3.53;;
73841;SDS011;62184;52.006;5.924;2022-12-29T13:51:47;12.77;;;4.00;;
73841;SDS011;62184;52.006;5.924;2022-12-29T13:54:20;13.23;;;3.88;;
73841;SDS011;62184;52.006;5.924;2022-12-29T13:57:02;10.20;;;3.90;;
73841;SDS011;62184;52.006;5.924;2022-12-29T13:59:42;11.88;;;3.50;;
73841;SDS011;62184;52.006;5.924;2022-12-29T14:02:21;12.50;;;3.42;;
73841;SDS011;62184;52.006;5.924;2022-12-29T14:05:28;11.68;;;3.53;;
73841;SDS011;62184;52.006;5.924;2022-12-29T14:07:58;12.60;;;3.47;;
73841;SDS011;62184;52.006;5.924;2022-12-29T14:10:28;12.10;;;3.73;;
73841;SDS011;62184;52.006;5.924;2022-12-29T14:13:00;12.80;;;3.33;;
73841;SDS011;62184;52.006;5.924;2022-12-29T14:15:31;13.02;;;3.15;;
73841;SDS011;62184;52.006;5.924;2022-12-29T14:18:13;11.48;;;3.40;;
73841;SDS011;62184;52.006;5.924;2022-12-29T14:20:52;10.37;;;3.23;;
73841;SDS011;62184;52.006;5.924;2022-12-29T14:23:29;10.55;;;2.97;;
73841;SDS011;62184;52.006;5.924;2022-12-29T14:26:13;8.77;;;2.80;;
73841;SDS011;62184;52.006;5.924;2022-12-29T14:28:44;6.35;;;2.30;;
73841;SDS011;62184;52.006;5.924;2022-12-29T14:34:16;5.95;;;2.03;;
73841;SDS011;62184;52.006;5.924;2022-12-29T14:37:14;5.10;;;1.75;;
73841;SDS011;62184;52.006;5.924;2022-12-29T14:39:52;6.75;;;1.98;;
73841;SDS011;62184;52.006;5.924;2022-12-29T14:42:31;6.50;;;2.20;;
73841;SDS011;62184;52.006;5.924;2022-12-29T14:44:59;6.75;;;2.22;;
73841;SDS011;62184;52.006;5.924;2022-12-29T14:47:34;6.32;;;2.45;;
73841;SDS011;62184;52.006;5.924;2022-12-29T14:50:04;6.10;;;2.42;;
73841;SDS011;62184;52.006;5.924;2022-12-29T14:52:44;6.43;;;2.60;;
73841;SDS011;62184;52.006;5.924;2022-12-29T14:55:32;8.90;;;2.70;;
73841;SDS011;62184;52.006;5.924;2022-12-29T14:58:06;7.80;;;2.70;;
73841;SDS011;62184;52.006;5.924;2022-12-29T15:00:40;8.88;;;2.80;;
73841;SDS011;62184;52.006;5.924;2022-12-29T15:03:12;7.93;;;2.50;;
73841;SDS011;62184;52.006;5.924;2022-12-29T15:05:46;8.18;;;2.95;;
73841;SDS011;62184;52.006;5.924;2022-12-29T15:08:20;7.63;;;2.70;;
73841;SDS011;62184;52.006;5.924;2022-12-29T15:10:53;8.77;;;2.67;;
73841;SDS011;62184;52.006;5.924;2022-12-29T15:13:32;7.95;;;2.53;;
73841;SDS011;62184;52.006;5.924;2022-12-29T15:16:01;8.57;;;2.60;;
73841;SDS011;62184;52.006;5.924;2022-12-29T15:18:28;9.20;;;2.78;;
73841;SDS011;62184;52.006;5.924;2022-12-29T15:20:58;8.88;;;2.58;;
73841;SDS011;62184;52.006;5.924;2022-12-29T15:23:30;9.80;;;2.70;;
73841;SDS011;62184;52.006;5.924;2022-12-29T15:26:00;10.82;;;2.55;;
73841;SDS011;62184;52.006;5.924;2022-12-29T15:28:36;9.27;;;2.75;;
73841;SDS011;62184;52.006;5.924;2022-12-29T15:31:05;9.50;;;2.55;;
73841;SDS011;62184;52.006;5.924;2022-12-29T15:33:39;10.77;;;3.03;;
73841;SDS011;62184;52.006;5.924;2022-12-29T15:36:10;11.82;;;3.30;;
73841;SDS011;62184;52.006;5.924;2022-12-29T15:38:41;9.57;;;2.90;;